Time;durP1;ratioP1;P1;durP2;ratioP2;P2;SDS_P1;SDS_P2;PMS_P1;PMS_P2;Temp;Humidity;BMP_temperature;BMP_pressure;BME280_temperature;BME280_humidity;BME280_pressure;Samples;Min_cycle;Max_cycle;Signal;HPM_P1;HPM_P2
2024/03/20 00:02:07;;;;;;;2.03;1.93;;;7.90;99.90;;;;;;5034612;28;20288;-59
2024/03/20 00:04:35;;;;;;;1.90;1.80;;;7.90;99.90;;;;;;5062890;22;22208;-61
2024/03/20 00:07:02;;;;;;;1.97;1.77;;;7.80;99.90;;;;;;5025098;28;20558;-61
2024/03/20 00:09:29;;;;;;;2.00;1.90;;;7.80;99.90;;;;;;5029145;28;20205;-62
2024/03/20 00:11:57;;;;;;;2.97;1.83;;;7.70;99.90;;;;;;5033710;28;20209;-61
2024/03/20 00:14:24;;;;;;;1.77;1.67;;;7.80;99.90;;;;;;5033288;28;20320;-61
2024/03/20 00:16:51;;;;;;;1.83;1.73;;;7.80;99.90;;;;;;5026309;28;20331;-62
2024/03/20 00:19:18;;;;;;;1.60;1.53;;;7.70;99.90;;;;;;5030618;28;20201;-61
2024/03/20 00:21:46;;;;;;;2.07;1.93;;;7.70;99.90;;;;;;5033581;28;20304;-61
2024/03/20 00:24:13;;;;;;;1.37;1.27;;;7.60;99.90;;;;;;5030069;28;20197;-61
2024/03/20 00:26:40;;;;;;;1.93;1.73;;;7.60;99.90;;;;;;5032395;28;20668;-62
2024/03/20 00:29:08;;;;;;;2.20;1.73;;;7.60;99.90;;;;;;5033305;28;20266;-61
2024/03/20 00:31:35;;;;;;;2.23;1.70;;;7.60;99.90;;;;;;5033137;28;20205;-61
2024/03/20 00:34:02;;;;;;;1.70;1.60;;;7.60;99.90;;;;;;5032593;28;20227;-61
2024/03/20 00:36:39;;;;;;;3.27;2.13;;;7.60;99.90;;;;;;5028192;28;20237;-61
2024/03/20 00:39:08;;;;;;;2.30;1.40;;;7.60;99.90;;;;;;5032677;28;20200;-62
2024/03/20 00:41:35;;;;;;;1.53;1.43;;;7.60;99.90;;;;;;5031001;28;20200;-62
2024/03/20 00:44:02;;;;;;;2.30;1.53;;;7.60;99.90;;;;;;5031638;28;20333;-62
2024/03/20 00:46:29;;;;;;;2.00;1.80;;;7.60;99.90;;;;;;5023972;28;20279;-62
2024/03/20 00:48:55;;;;;;;1.77;1.70;;;7.60;99.90;;;;;;5032475;28;20240;-62
2024/03/20 00:51:21;;;;;;;2.27;2.03;;;7.50;99.90;;;;;;5033257;28;20647;-62
2024/03/20 00:53:48;;;;;;;2.10;1.90;;;7.50;99.90;;;;;;5032164;28;20196;-62
2024/03/20 00:56:17;;;;;;;2.67;1.90;;;7.40;99.90;;;;;;5022097;28;20217;-62
2024/03/20 00:58:44;;;;;;;2.50;1.93;;;7.40;99.90;;;;;;5033081;28;20285;-62
2024/03/20 01:01:12;;;;;;;2.27;1.77;;;7.30;99.90;;;;;;5035802;28;20255;-62
2024/03/20 01:03:39;;;;;;;3.67;1.73;;;7.30;99.90;;;;;;5033018;28;20236;-62
2024/03/20 01:06:06;;;;;;;2.17;2.00;;;7.30;99.90;;;;;;5023837;28;20224;-62
2024/03/20 01:08:33;;;;;;;1.70;1.60;;;7.20;99.90;;;;;;5032873;28;20208;-62
2024/03/20 01:10:59;;;;;;;1.90;1.80;;;7.10;99.90;;;;;;5032774;28;20256;-62
2024/03/20 01:13:28;;;;;;;6.20;1.53;;;7.10;99.90;;;;;;5032282;28;20204;-62
2024/03/20 01:15:55;;;;;;;2.73;1.40;;;7.10;99.90;;;;;;5021955;28;20220;-62
2024/03/20 01:18:22;;;;;;;1.60;1.60;;;7.10;99.90;;;;;;5042802;28;20265;-62
2024/03/20 01:20:48;;;;;;;2.03;1.83;;;7.00;99.90;;;;;;5052545;28;20274;-62
2024/03/20 01:23:16;;;;;;;1.37;1.30;;;7.00;99.90;;;;;;5032882;28;20292;-62
2024/03/20 01:25:43;;;;;;;1.57;1.50;;;7.00;99.90;;;;;;5023448;28;20227;-62
2024/03/20 01:28:10;;;;;;;1.43;1.10;;;6.90;99.90;;;;;;5040674;28;20199;-62
2024/03/20 01:30:38;;;;;;;2.10;1.90;;;6.90;99.90;;;;;;5052472;28;20246;-62
2024/03/20 01:33:06;;;;;;;3.00;1.67;;;6.80;99.90;;;;;;5040855;28;20746;-62
2024/03/20 01:35:33;;;;;;;1.63;1.53;;;6.90;99.90;;;;;;5023259;28;20265;-62
2024/03/20 01:38:00;;;;;;;1.60;1.50;;;6.80;99.90;;;;;;5029433;28;20200;-62
2024/03/20 01:40:27;;;;;;;1.80;1.70;;;6.80;99.90;;;;;;5032619;28;20818;-62
2024/03/20 01:42:55;;;;;;;2.47;1.47;;;6.80;99.90;;;;;;5032166;28;20252;-62
2024/03/20 01:45:22;;;;;;;2.33;1.87;;;6.70;99.90;;;;;;5032325;28;20332;-62
2024/03/20 01:47:52;;;;;;;2.13;2.03;;;6.60;99.90;;;;;;5029318;28;20620;-62
2024/03/20 01:50:19;;;;;;;1.37;1.27;;;6.60;99.90;;;;;;5032074;28;20208;-62
2024/03/20 01:52:49;;;;;;;1.43;1.27;;;6.60;99.90;;;;;;5032016;28;20631;-61
2024/03/20 01:55:17;;;;;;;2.13;1.40;;;6.60;99.90;;;;;;5030139;28;20222;-61
2024/03/20 01:57:44;;;;;;;1.47;1.37;;;6.50;99.90;;;;;;5040768;28;20224;-61
2024/03/20 02:00:13;;;;;;;2.47;2.27;;;6.50;99.90;;;;;;5029407;28;20203;-61
2024/03/20 02:02:40;;;;;;;1.90;1.80;;;6.50;99.90;;;;;;5022312;28;20258;-61
2024/03/20 02:05:09;;;;;;;1.70;1.60;;;6.40;99.90;;;;;;5029538;28;20891;-62
2024/03/20 02:07:36;;;;;;;1.90;1.80;;;6.40;99.90;;;;;;5028296;28;20277;-61
2024/03/20 02:10:03;;;;;;;2.90;2.17;;;6.40;99.90;;;;;;5028684;28;20252;-60
2024/03/20 02:12:30;;;;;;;2.57;2.00;;;6.50;99.90;;;;;;5024467;28;20195;-61
2024/03/20 02:14:57;;;;;;;2.10;2.00;;;6.40;99.90;;;;;;5032052;28;20228;-61
2024/03/20 02:17:24;;;;;;;2.47;2.20;;;6.20;99.90;;;;;;5030211;28;20271;-60
2024/03/20 02:19:51;;;;;;;2.50;1.77;;;6.20;99.90;;;;;;5031497;28;20203;-60
2024/03/20 02:22:19;;;;;;;2.80;2.17;;;6.30;99.90;;;;;;5031246;28;20196;-61
2024/03/20 02:24:46;;;;;;;4.20;1.80;;;6.30;99.90;;;;;;5025038;28;20282;-61
2024/03/20 02:27:13;;;;;;;3.30;1.60;;;6.30;99.90;;;;;;5034388;28;20876;-60
2024/03/20 02:29:40;;;;;;;2.57;1.87;;;6.30;99.90;;;;;;5051446;28;20256;-61
2024/03/20 02:32:07;;;;;;;2.37;2.27;;;6.20;99.90;;;;;;5051465;28;20200;-61
2024/03/20 02:34:34;;;;;;;2.37;2.13;;;6.30;99.90;;;;;;5025168;28;20277;-60
2024/03/20 02:37:01;;;;;;;1.93;1.83;;;6.30;99.90;;;;;;5028026;28;20292;-61
2024/03/20 02:39:29;;;;;;;2.47;2.37;;;6.30;99.90;;;;;;5022795;28;20269;-61
2024/03/20 02:41:56;;;;;;;1.93;1.80;;;6.20;99.90;;;;;;5031270;28;20266;-61
2024/03/20 02:44:23;;;;;;;2.43;2.20;;;6.30;99.90;;;;;;5022430;28;20206;-60
2024/03/20 02:46:50;;;;;;;2.47;2.37;;;6.20;99.90;;;;;;5030448;28;20276;-61
2024/03/20 02:49:17;;;;;;;3.43;2.40;;;6.20;99.90;;;;;;5051375;28;20345;-61
2024/03/20 02:51:44;;;;;;;2.67;2.47;;;6.20;99.90;;;;;;5051224;28;20622;-61
2024/03/20 02:54:11;;;;;;;2.50;2.27;;;6.20;99.90;;;;;;5037431;28;20204;-60
2024/03/20 02:56:39;;;;;;;2.30;2.10;;;6.20;99.90;;;;;;5031467;28;20220;-60
2024/03/20 02:59:06;;;;;;;1.93;1.87;;;6.20;99.90;;;;;;5049796;28;20326;-61
2024/03/20 03:01:33;;;;;;;2.27;2.17;;;6.10;99.90;;;;;;5051292;28;20221;-61
2024/03/20 03:04:00;;;;;;;2.83;2.03;;;6.10;99.90;;;;;;5034290;28;20728;-61
2024/03/20 03:06:27;;;;;;;2.00;1.90;;;6.10;99.90;;;;;;5032848;28;20228;-61
2024/03/20 03:08:54;;;;;;;2.40;1.97;;;6.10;99.90;;;;;;5051818;28;20210;-61
2024/03/20 03:11:21;;;;;;;2.77;2.20;;;6.10;99.90;;;;;;5055051;28;20544;-61
2024/03/20 03:13:50;;;;;;;2.00;1.90;;;6.00;99.90;;;;;;5039887;28;20304;-61
2024/03/20 03:16:17;;;;;;;1.93;1.70;;;6.00;99.90;;;;;;5031309;28;20309;-60
2024/03/20 03:18:44;;;;;;;2.20;2.10;;;6.00;99.90;;;;;;5050048;28;20207;-61
2024/03/20 03:21:11;;;;;;;2.50;2.30;;;6.00;99.90;;;;;;5055068;28;20260;-60
2024/03/20 03:23:38;;;;;;;2.23;2.03;;;5.90;99.90;;;;;;5045109;28;20204;-61
2024/03/20 03:26:05;;;;;;;2.07;1.97;;;5.80;99.90;;;;;;5029351;28;20218;-61
2024/03/20 03:28:32;;;;;;;2.87;2.67;;;5.90;99.90;;;;;;5034691;28;20195;-61
2024/03/20 03:31:01;;;;;;;2.00;1.90;;;5.80;99.90;;;;;;5035133;28;20379;-61
2024/03/20 03:33:28;;;;;;;1.93;1.83;;;5.80;99.90;;;;;;5034281;28;20202;-61
2024/03/20 03:36:04;;;;;;;2.63;2.53;;;5.80;99.90;;;;;;5028008;28;20216;-61
2024/03/20 03:38:31;;;;;;;2.50;2.30;;;5.80;99.90;;;;;;5047504;28;20752;-61
2024/03/20 03:41:01;;;;;;;1.70;1.60;;;5.70;99.90;;;;;;5037857;28;20275;-60
2024/03/20 03:43:28;;;;;;;3.17;2.23;;;5.70;99.90;;;;;;5034778;28;20226;-61
2024/03/20 03:45:55;;;;;;;2.30;1.83;;;5.70;99.90;;;;;;5027928;28;20274;-61
2024/03/20 03:48:24;;;;;;;2.53;2.23;;;5.70;99.90;;;;;;5046103;28;20257;-61
2024/03/20 03:50:51;;;;;;;2.20;2.10;;;5.60;99.90;;;;;;5054383;28;20207;-61
2024/03/20 03:53:18;;;;;;;2.87;2.67;;;5.70;99.90;;;;;;5047419;28;20204;-60
2024/03/20 03:55:46;;;;;;;3.20;1.80;;;5.70;99.90;;;;;;5027277;28;20302;-60
2024/03/20 03:58:13;;;;;;;1.70;1.60;;;5.70;99.90;;;;;;5043291;28;20714;-61
2024/03/20 04:00:40;;;;;;;2.30;2.20;;;5.70;99.90;;;;;;5054481;28;20204;-61
2024/03/20 04:03:07;;;;;;;1.80;1.70;;;5.70;99.90;;;;;;5051887;28;20733;-60
2024/03/20 04:05:36;;;;;;;2.40;2.23;;;5.70;99.90;;;;;;5026554;28;20230;-61
2024/03/20 04:08:03;;;;;;;4.73;2.70;;;5.70;99.90;;;;;;5039671;28;20203;-62
2024/03/20 04:10:30;;;;;;;3.43;2.83;;;5.70;99.90;;;;;;5054134;28;20633;-61
2024/03/20 04:12:58;;;;;;;2.73;2.57;;;5.60;99.90;;;;;;5049832;28;20736;-61
2024/03/20 04:15:25;;;;;;;2.83;2.30;;;5.60;99.90;;;;;;5026759;28;20691;-61
2024/03/20 04:17:52;;;;;;;3.07;2.87;;;5.60;99.90;;;;;;5032981;28;20271;-61
2024/03/20 04:20:19;;;;;;;2.37;2.20;;;5.60;99.90;;;;;;5034042;28;20204;-61
2024/03/20 04:22:47;;;;;;;3.10;2.67;;;5.60;99.90;;;;;;5034647;28;20211;-61
2024/03/20 04:25:14;;;;;;;3.27;2.23;;;5.60;99.90;;;;;;5026273;28;20633;-61
2024/03/20 04:27:42;;;;;;;3.60;3.30;;;5.50;99.90;;;;;;5023568;28;20214;-61
2024/03/20 04:30:12;;;;;;;2.93;2.73;;;5.50;99.90;;;;;;5053825;28;20238;-60
2024/03/20 04:32:39;;;;;;;3.37;3.17;;;5.50;99.90;;;;;;5050725;28;20269;-61
2024/03/20 04:35:07;;;;;;;3.10;2.87;;;5.40;99.90;;;;;;5024055;28;20311;-61
2024/03/20 04:37:35;;;;;;;3.33;3.07;;;5.40;99.90;;;;;;5029803;28;20275;-61
2024/03/20 04:40:04;;;;;;;3.37;3.17;;;5.40;99.90;;;;;;5033934;28;20282;-61
2024/03/20 04:42:31;;;;;;;2.97;2.83;;;5.40;99.90;;;;;;5032464;28;20213;-60
2024/03/20 04:44:58;;;;;;;2.53;2.43;;;5.30;99.90;;;;;;5024883;28;20227;-61
2024/03/20 04:47:25;;;;;;;2.90;2.70;;;5.20;99.90;;;;;;5044153;28;20187;-61
2024/03/20 04:49:52;;;;;;;4.57;2.70;;;5.20;99.90;;;;;;5035314;28;20200;-61
2024/03/20 04:52:19;;;;;;;2.70;2.33;;;5.10;99.90;;;;;;5034499;28;20205;-61
2024/03/20 04:54:45;;;;;;;2.93;2.60;;;5.00;99.90;;;;;;5026374;28;20225;-61
2024/03/20 04:57:14;;;;;;;2.70;2.43;;;5.10;99.90;;;;;;5032076;28;20646;-61
2024/03/20 04:59:41;;;;;;;2.83;2.63;;;5.00;99.90;;;;;;5033450;28;20200;-61
2024/03/20 05:02:08;;;;;;;2.70;2.50;;;5.00;99.90;;;;;;5033284;28;20227;-61
2024/03/20 05:04:35;;;;;;;3.37;3.17;;;4.90;99.90;;;;;;5025866;28;20240;-61
2024/03/20 05:07:02;;;;;;;2.97;2.77;;;5.00;99.90;;;;;;5033579;28;20253;-61
2024/03/20 05:09:29;;;;;;;2.70;2.50;;;5.00;99.90;;;;;;5053260;28;20679;-60
2024/03/20 05:11:56;;;;;;;8.10;4.77;;;5.10;99.90;;;;;;5053465;28;20212;-61
2024/03/20 05:14:24;;;;;;;2.90;2.40;;;5.00;99.90;;;;;;5028716;28;20212;-60
2024/03/20 05:16:52;;;;;;;3.00;2.80;;;5.10;99.90;;;;;;5032373;28;20291;-59
2024/03/20 05:19:19;;;;;;;2.77;2.57;;;5.10;99.90;;;;;;5032906;28;20200;-61
2024/03/20 05:21:46;;;;;;;3.03;2.43;;;5.00;99.90;;;;;;5033337;28;20662;-60
2024/03/20 05:24:12;;;;;;;3.10;2.80;;;5.00;99.90;;;;;;5026132;28;20225;-60
2024/03/20 05:26:39;;;;;;;3.13;2.53;;;5.00;99.90;;;;;;5031404;28;20212;-60
2024/03/20 05:29:05;;;;;;;3.67;2.87;;;5.00;99.90;;;;;;5032350;28;20211;-60
2024/03/20 05:31:33;;;;;;;3.07;2.50;;;5.00;99.90;;;;;;5052638;28;20204;-60
2024/03/20 05:33:59;;;;;;;5.03;2.40;;;5.00;99.90;;;;;;5033091;28;20200;-60
2024/03/20 05:36:26;;;;;;;3.43;2.33;;;5.00;99.90;;;;;;5029856;28;20216;-60
2024/03/20 05:38:52;;;;;;;3.43;1.83;;;5.00;99.90;;;;;;5046874;28;20310;-60
2024/03/20 05:41:19;;;;;;;1.87;1.73;;;5.00;99.90;;;;;;5032616;28;20677;-61
2024/03/20 05:43:46;;;;;;;1.87;1.70;;;5.10;99.90;;;;;;5029510;28;20256;-60
2024/03/20 05:46:14;;;;;;;2.60;1.97;;;5.10;99.90;;;;;;5027648;28;20606;-60
2024/03/20 05:48:42;;;;;;;2.30;1.67;;;5.10;99.90;;;;;;5045473;28;20204;-60
2024/03/20 05:51:10;;;;;;;3.43;2.43;;;5.20;99.90;;;;;;5047513;28;20200;-60
2024/03/20 05:53:36;;;;;;;2.67;2.43;;;5.10;99.90;;;;;;5026468;28;20212;-60
2024/03/20 05:56:04;;;;;;;2.97;2.67;;;5.00;99.90;;;;;;5026846;28;20224;-60
2024/03/20 05:58:31;;;;;;;3.93;3.00;;;5.10;99.90;;;;;;5027582;28;20216;-60
2024/03/20 06:00:58;;;;;;;3.73;3.10;;;5.20;99.90;;;;;;5032177;28;20209;-60
2024/03/20 06:03:24;;;;;;;2.73;2.63;;;5.20;99.90;;;;;;5031970;28;20213;-59
2024/03/20 06:05:52;;;;;;;3.50;3.20;;;5.20;99.90;;;;;;5030393;28;20231;-59
2024/03/20 06:08:18;;;;;;;4.30;3.33;;;5.30;99.90;;;;;;5031947;28;20204;-59
2024/03/20 06:10:45;;;;;;;3.23;3.03;;;5.30;99.90;;;;;;5031595;28;20258;-59
2024/03/20 06:13:11;;;;;;;3.10;2.90;;;5.40;99.90;;;;;;5030634;28;20773;-59
2024/03/20 06:15:38;;;;;;;3.17;2.90;;;5.40;99.90;;;;;;5032806;28;20300;-59
2024/03/20 06:18:05;;;;;;;3.23;2.93;;;5.60;99.90;;;;;;5039173;28;20321;-59
2024/03/20 06:20:32;;;;;;;2.93;2.73;;;6.00;99.90;;;;;;5037695;28;20240;-59
2024/03/20 06:22:59;;;;;;;3.27;2.43;;;7.00;99.90;;;;;;5032535;28;20278;-60
2024/03/20 06:25:27;;;;;;;2.27;1.87;;;8.50;99.90;;;;;;5034505;28;20224;-60
2024/03/20 06:27:53;;;;;;;2.53;2.43;;;10.10;99.90;;;;;;5026715;28;20201;-61
2024/03/20 06:30:21;;;;;;;2.77;2.67;;;11.50;99.90;;;;;;5029840;28;20204;-61
2024/03/20 06:32:47;;;;;;;3.10;2.00;;;12.50;99.90;;;;;;5029001;28;20205;-61
2024/03/20 06:35:15;;;;;;;4.80;2.40;;;13.40;99.90;;;;;;5027706;28;20728;-61
2024/03/20 06:37:42;;;;;;;2.97;2.80;;;14.00;99.90;;;;;;5029487;28;20321;-61
2024/03/20 06:40:12;;;;;;;8.47;5.57;;;14.70;99.90;;;;;;5028946;28;20274;-61
2024/03/20 06:42:38;;;;;;;6.97;5.17;;;15.00;99.90;;;;;;5032698;28;20294;-61
2024/03/20 06:45:06;;;;;;;8.03;5.43;;;14.90;99.90;;;;;;5025988;28;20224;-60
2024/03/20 06:47:32;;;;;;;8.33;6.03;;;14.80;99.90;;;;;;5026245;28;20569;-61
2024/03/20 06:49:59;;;;;;;13.70;5.30;;;14.40;99.90;;;;;;5026227;28;20217;-61
2024/03/20 06:52:26;;;;;;;4.33;3.93;;;13.80;99.90;;;;;;5027860;28;20203;-61
2024/03/20 06:54:53;;;;;;;7.43;4.70;;;13.80;99.90;;;;;;5028365;28;20306;-61
2024/03/20 06:57:20;;;;;;;5.97;1.87;;;13.90;99.90;;;;;;5026630;28;20215;-61
2024/03/20 06:59:49;;;;;;;4.23;1.70;;;14.00;99.90;;;;;;5032458;28;20202;-61
2024/03/20 07:02:15;;;;;;;1.63;1.20;;;14.00;99.90;;;;;;5028777;28;20206;-61
2024/03/20 07:04:43;;;;;;;3.63;1.80;;;13.70;99.90;;;;;;5029232;28;20609;-61
2024/03/20 07:07:11;;;;;;;4.73;4.30;;;13.70;99.90;;;;;;5028353;28;20215;-61
2024/03/20 07:09:38;;;;;;;3.70;3.40;;;13.40;99.90;;;;;;5027953;28;20206;-61
2024/03/20 07:12:05;;;;;;;2.77;2.30;;;13.20;99.90;;;;;;5022998;28;20681;-62
2024/03/20 07:14:34;;;;;;;3.72;2.58;;;13.30;99.90;;;;;;5021249;28;20445;-61
2024/03/20 07:17:00;;;;;;;3.33;2.13;;;13.40;99.90;;;;;;5032332;28;20691;-61
2024/03/20 07:19:28;;;;;;;3.10;1.87;;;12.90;99.90;;;;;;5029564;28;20199;-61
2024/03/20 07:21:54;;;;;;;2.00;1.87;;;13.20;99.90;;;;;;5028134;28;20264;-61
2024/03/20 07:24:21;;;;;;;1.83;1.73;;;13.50;99.90;;;;;;5028162;28;20206;-68
2024/03/20 07:26:47;;;;;;;3.60;1.57;;;13.70;99.90;;;;;;5029633;28;20271;-69
2024/03/20 07:29:14;;;;;;;2.00;0.80;;;13.60;99.90;;;;;;5028574;28;20662;-62
2024/03/20 07:31:41;;;;;;;1.37;0.63;;;13.50;99.90;;;;;;5029618;28;20285;-71
2024/03/20 07:34:08;;;;;;;0.67;0.43;;;13.10;99.90;;;;;;5025556;28;20636;-70
2024/03/20 07:36:34;;;;;;;0.70;0.43;;;13.10;99.90;;;;;;5024980;28;20203;-69
2024/03/20 07:39:03;;;;;;;0.70;0.70;;;13.20;99.90;;;;;;5023388;28;20219;-67
2024/03/20 07:41:29;;;;;;;1.10;1.00;;;13.30;99.90;;;;;;5028153;28;20222;-68
2024/03/20 07:43:56;;;;;;;3.17;0.50;;;13.60;99.90;;;;;;5023618;28;20842;-66
2024/03/20 07:46:23;;;;;;;0.70;0.70;;;13.70;99.90;;;;;;5020989;28;20239;-65
2024/03/20 07:48:51;;;;;;;0.97;0.90;;;13.70;99.90;;;;;;5019212;28;21100;-66
2024/03/20 07:51:19;;;;;;;2.43;0.60;;;13.90;99.90;;;;;;5024946;28;20198;-67
2024/03/20 07:53:46;;;;;;;0.40;0.40;;;14.50;99.90;;;;;;5024661;28;20752;-66
2024/03/20 07:56:12;;;;;;;1.07;0.40;;;15.10;99.90;;;;;;5029851;28;20228;-69
2024/03/20 07:58:41;;;;;;;2.40;0.40;;;15.30;99.90;;;;;;5029546;28;20253;-67
2024/03/20 08:01:11;;;;;;;2.00;1.23;;;15.60;99.90;;;;;;5027626;28;20623;-62
2024/03/20 08:03:39;;;;;;;0.93;0.90;;;16.00;99.90;;;;;;5029523;28;20224;-69
2024/03/20 08:06:06;;;;;;;2.13;0.60;;;16.20;99.90;;;;;;5021602;28;20234;-69
2024/03/20 08:08:33;;;;;;;1.30;0.67;;;16.40;99.90;;;;;;5022455;28;20198;-70
2024/03/20 08:10:59;;;;;;;3.47;1.20;;;16.60;99.90;;;;;;5025280;28;20195;-68
2024/03/20 08:13:26;;;;;;;3.37;1.13;;;16.60;99.90;;;;;;5029636;28;20202;-68
2024/03/20 08:15:52;;;;;;;1.20;0.70;;;17.00;99.90;;;;;;5019024;28;20283;-71
2024/03/20 08:18:19;;;;;;;2.57;0.50;;;17.10;99.90;;;;;;5021290;28;22482;-68
2024/03/20 08:20:45;;;;;;;3.53;1.30;;;17.30;99.90;;;;;;5009861;28;20697;-66
2024/03/20 08:23:13;;;;;;;0.93;0.83;;;17.60;99.90;;;;;;5025254;28;20198;-65
2024/03/20 08:25:39;;;;;;;1.87;0.50;;;17.70;99.90;;;;;;5025418;28;20726;-66
2024/03/20 08:28:07;;;;;;;1.73;0.77;;;18.00;99.90;;;;;;5028857;28;20195;-66
2024/03/20 08:30:33;;;;;;;1.10;0.90;;;18.00;99.90;;;;;;5028527;28;20249;-68
2024/03/20 08:33:00;;;;;;;2.20;0.70;;;17.90;99.90;;;;;;5031219;28;20651;-67
2024/03/20 08:35:26;;;;;;;1.47;0.93;;;18.30;99.90;;;;;;5025976;28;20637;-68
2024/03/20 08:37:54;;;;;;;3.77;0.90;;;19.00;99.90;;;;;;5024838;28;20234;-70
2024/03/20 08:40:22;;;;;;;3.17;1.00;;;19.40;99.90;;;;;;5029444;28;20226;-67
2024/03/20 08:42:49;;;;;;;0.83;0.83;;;19.90;99.90;;;;;;5028231;28;20203;-67
2024/03/20 08:45:16;;;;;;;3.53;0.60;;;20.30;99.90;;;;;;5025670;28;20229;-67
2024/03/20 08:47:47;;;;;;;0.80;0.80;;;20.30;99.90;;;;;;5019044;28;20199;-67
2024/03/20 08:50:13;;;;;;;1.57;0.80;;;20.80;99.90;;;;;;5017325;28;20198;-69
2024/03/20 08:52:41;;;;;;;0.60;0.60;;;21.50;99.90;;;;;;5020036;28;20282;-69
2024/03/20 08:55:08;;;;;;;2.73;0.60;;;21.60;99.90;;;;;;5020308;28;20273;-70
2024/03/20 08:57:36;;;;;;;1.43;0.80;;;21.60;99.90;;;;;;5017208;28;20857;-68
2024/03/20 09:00:05;;;;;;;2.67;0.70;;;20.80;99.90;;;;;;5020044;28;20688;-69
2024/03/20 09:02:32;;;;;;;1.10;0.60;;;21.20;99.90;;;;;;5023658;28;20242;-68
2024/03/20 09:04:58;;;;;;;4.70;0.97;;;21.40;99.90;;;;;;5019778;28;20376;-68
2024/03/20 09:07:25;;;;;;;0.60;0.60;;;21.80;99.90;;;;;;5017221;28;20742;-67
2024/03/20 09:09:52;;;;;;;1.80;0.60;;;22.10;99.90;;;;;;5018753;28;20268;-67
2024/03/20 09:12:19;;;;;;;0.73;0.67;;;22.20;99.90;;;;;;5018308;28;20634;-67
2024/03/20 09:14:46;;;;;;;0.87;0.87;;;22.50;99.90;;;;;;5019853;28;20317;-68
2024/03/20 09:17:13;;;;;;;1.17;1.17;;;22.60;99.90;;;;;;5024478;28;20630;-68
2024/03/20 09:19:39;;;;;;;0.63;0.50;;;22.60;99.90;;;;;;5017974;28;20237;-67
2024/03/20 09:22:06;;;;;;;0.60;0.60;;;22.80;99.90;;;;;;5018765;28;20852;-68
2024/03/20 09:24:32;;;;;;;1.47;1.37;;;22.90;99.90;;;;;;5025365;28;20226;-67
2024/03/20 09:26:59;;;;;;;0.70;0.53;;;22.70;99.90;;;;;;5016431;28;20195;-67
2024/03/20 09:29:25;;;;;;;2.27;0.80;;;23.10;99.90;;;;;;5022926;28;20693;-66
2024/03/20 09:31:54;;;;;;;0.60;0.60;;;23.90;99.90;;;;;;5019603;28;20206;-66
2024/03/20 09:34:20;;;;;;;1.20;1.10;;;23.70;99.90;;;;;;5017583;28;20203;-69
2024/03/20 09:36:49;;;;;;;1.40;0.67;;;24.00;99.90;;;;;;5016103;28;20627;-68
2024/03/20 09:39:15;;;;;;;2.67;0.60;;;23.70;99.00;;;;;;5014090;28;20222;-69
2024/03/20 09:41:42;;;;;;;1.83;0.80;;;23.90;99.90;;;;;;5018502;28;20203;-69
2024/03/20 09:44:11;;;;;;;1.70;0.80;;;23.20;99.10;;;;;;5017087;28;20433;-70
2024/03/20 09:46:38;;;;;;;2.93;0.60;;;23.20;99.90;;;;;;5016307;28;20190;-68
2024/03/20 09:49:05;;;;;;;3.17;1.07;;;22.30;99.50;;;;;;5015900;28;20199;-69
2024/03/20 09:51:32;;;;;;;0.80;0.80;;;21.60;99.90;;;;;;5017508;28;20572;-69
2024/03/20 09:53:58;;;;;;;1.63;0.70;;;22.30;99.90;;;;;;5028073;28;20206;-68
2024/03/20 09:56:26;;;;;;;0.50;0.50;;;23.00;99.90;;;;;;5018704;28;20225;-68
2024/03/20 09:58:53;;;;;;;0.40;0.30;;;23.40;99.90;;;;;;5026861;28;20214;-70
2024/03/20 10:01:22;;;;;;;2.30;1.50;;;23.30;99.90;;;;;;5028093;28;20297;-68
2024/03/20 10:03:53;;;;;;;1.77;1.67;;;;;;;;;;5026779;28;20456;-63
2024/03/20 10:06:22;;;;;;;1.57;1.57;;;22.50;99.90;;;;;;5025559;28;20222;-63
2024/03/20 10:08:48;;;;;;;4.83;1.97;;;22.40;99.90;;;;;;5025662;28;20614;-62
2024/03/20 10:11:15;;;;;;;1.73;1.10;;;22.90;99.90;;;;;;5020272;28;20199;-63
2024/03/20 10:13:42;;;;;;;6.03;2.10;;;22.90;99.90;;;;;;5025842;28;20198;-62
2024/03/20 10:16:12;;;;;;;2.00;2.00;;;22.90;99.90;;;;;;5021609;28;20218;-63
2024/03/20 10:18:38;;;;;;;2.60;2.50;;;23.00;99.90;;;;;;5026100;28;20744;-62
2024/03/20 10:21:06;;;;;;;3.27;3.13;;;22.60;99.90;;;;;;5024120;28;20222;-63
2024/03/20 10:23:38;;;;;;;5.13;2.93;;;22.70;99.90;;;;;;5021823;28;20204;-62
2024/03/20 10:26:06;;;;;;;3.37;3.17;;;22.70;99.90;;;;;;5015272;28;20238;-63
2024/03/20 10:28:32;;;;;;;3.30;3.10;;;22.20;99.90;;;;;;5016194;28;20666;-62
2024/03/20 10:31:03;;;;;;;4.87;4.00;;;21.40;99.90;;;;;;5017215;28;20218;-62
2024/03/20 10:33:29;;;;;;;9.20;4.90;;;21.30;99.90;;;;;;5014439;28;20249;-62
2024/03/20 10:35:57;;;;;;;6.07;4.10;;;21.10;99.90;;;;;;5015091;28;20222;-62
2024/03/20 10:38:23;;;;;;;4.37;4.17;;;20.50;99.90;;;;;;5027454;28;20230;-62
2024/03/20 10:40:52;;;;;;;6.17;3.90;;;19.80;99.90;;;;;;5032277;28;20248;-62
2024/03/20 10:43:20;;;;;;;3.53;3.43;;;19.60;99.90;;;;;;5026406;28;20298;-62
2024/03/20 10:45:48;;;;;;;3.40;3.20;;;19.90;99.90;;;;;;5019776;28;20260;-62
2024/03/20 10:48:18;;;;;;;3.67;3.57;;;20.60;99.90;;;;;;5018854;28;20676;-64
2024/03/20 10:50:47;;;;;;;4.63;4.27;;;20.10;99.90;;;;;;5025627;28;20221;-64
2024/03/20 10:53:13;;;;;;;3.83;3.63;;;19.50;99.90;;;;;;5017180;28;20256;-62
2024/03/20 10:55:41;;;;;;;4.00;3.70;;;19.50;99.90;;;;;;5028989;28;20226;-62
2024/03/20 10:58:11;;;;;;;4.53;4.23;;;19.40;99.90;;;;;;5017579;28;21173;-62
2024/03/20 11:00:42;;;;;;;4.67;4.27;;;19.20;99.90;;;;;;5021107;28;20736;-62
2024/03/20 11:03:37;;;;;;;3.80;3.50;;;19.30;99.90;;;;;;5019859;28;20206;-62
2024/03/20 11:06:39;;;;;;;4.07;3.33;;;19.00;99.90;;;;;;5013144;28;20885;-62
2024/03/20 11:09:22;;;;;;;3.30;3.00;;;18.70;99.90;;;;;;5018392;28;20211;-64
2024/03/20 11:11:53;;;;;;;6.87;3.60;;;18.80;99.90;;;;;;5016501;28;20664;-61
2024/03/20 11:14:30;;;;;;;2.43;2.17;;;18.80;99.90;;;;;;5017164;28;20206;-61
2024/03/20 11:17:04;;;;;;;2.07;2.00;;;18.70;99.90;;;;;;5015267;28;20210;-62
2024/03/20 11:19:30;;;;;;;1.77;1.67;;;18.50;99.90;;;;;;5017657;28;20295;-64
2024/03/20 11:21:59;;;;;;;1.80;1.80;;;18.00;99.90;;;;;;5018081;28;20206;-63
2024/03/20 11:24:27;;;;;;;2.37;1.57;;;17.70;99.90;;;;;;5025518;28;20234;-64
2024/03/20 11:26:56;;;;;;;1.90;1.80;;;17.10;99.90;;;;;;5030542;28;20194;-64
2024/03/20 11:29:22;;;;;;;2.27;2.17;;;17.00;99.90;;;;;;5032137;28;20744;-64
2024/03/20 11:31:54;;;;;;;1.27;1.27;;;16.90;99.90;;;;;;5027726;28;20199;-63
2024/03/20 11:34:20;;;;;;;1.33;1.33;;;16.50;99.90;;;;;;5025411;28;20294;-64
2024/03/20 11:36:47;;;;;;;2.20;2.00;;;16.60;99.90;;;;;;5025344;28;20726;-64
2024/03/20 11:39:13;;;;;;;2.20;1.70;;;16.40;99.90;;;;;;5020035;28;20218;-64
2024/03/20 11:41:40;;;;;;;2.37;1.43;;;16.30;99.90;;;;;;5024732;28;20198;-64
2024/03/20 11:44:10;;;;;;;2.15;2.05;;;16.20;99.90;;;;;;5028755;28;20485;-70
2024/03/20 11:46:37;;;;;;;1.93;1.83;;;16.10;99.90;;;;;;5017707;28;20265;-69
2024/03/20 11:49:06;;;;;;;2.10;1.90;;;16.00;99.90;;;;;;5019135;28;20211;-71
2024/03/20 11:51:33;;;;;;;1.70;1.70;;;16.30;99.90;;;;;;5031107;28;20198;-70
2024/03/20 11:54:02;;;;;;;1.87;1.60;;;16.50;99.90;;;;;;5019033;28;20214;-69
2024/03/20 11:56:29;;;;;;;1.53;0.90;;;16.60;99.90;;;;;;5020428;28;20780;-68
2024/03/20 11:58:55;;;;;;;1.77;1.40;;;16.70;99.90;;;;;;5020508;28;20222;-71
2024/03/20 12:01:23;;;;;;;1.33;1.33;;;16.60;99.90;;;;;;5021431;28;20195;-69
2024/03/20 12:03:52;;;;;;;1.53;1.20;;;16.70;99.90;;;;;;5018185;28;20665;-71
2024/03/20 12:06:25;;;;;;;2.37;2.20;;;16.90;99.90;;;;;;5018707;28;20449;-69
2024/03/20 12:08:52;;;;;;;1.10;1.10;;;17.00;99.90;;;;;;5019887;28;20198;-70
2024/03/20 12:11:25;;;;;;;1.07;1.00;;;16.90;99.90;;;;;;5016560;28;20203;-69
2024/03/20 12:13:52;;;;;;;1.77;1.67;;;17.00;99.90;;;;;;5022104;28;20256;-70
2024/03/20 12:16:21;;;;;;;1.07;1.07;;;17.10;99.90;;;;;;5018996;28;20225;-69
2024/03/20 12:18:47;;;;;;;1.93;1.00;;;17.20;99.90;;;;;;5020004;28;20250;-69
2024/03/20 12:21:16;;;;;;;1.23;0.83;;;17.20;99.90;;;;;;5023649;28;20198;-69
2024/03/20 12:23:45;;;;;;;3.07;0.93;;;16.80;99.90;;;;;;5021914;28;20198;-67
2024/03/20 12:26:13;;;;;;;0.70;0.70;;;;;;;;;;5018666;28;20227;-68
2024/03/20 12:28:40;;;;;;;1.37;1.07;;;17.10;99.90;;;;;;5015793;28;20202;-68
2024/03/20 12:31:12;;;;;;;1.40;1.03;;;17.00;99.90;;;;;;5021340;28;20245;-67
2024/03/20 12:33:40;;;;;;;0.80;0.80;;;16.80;99.90;;;;;;5016586;28;20248;-71
2024/03/20 12:36:08;;;;;;;1.73;1.30;;;16.80;99.90;;;;;;5019504;28;20673;-70
2024/03/20 12:38:34;;;;;;;0.80;0.80;;;16.80;99.90;;;;;;5018097;28;20258;-70
2024/03/20 12:41:03;;;;;;;2.57;1.00;;;16.90;99.90;;;;;;5029192;28;20226;-65
2024/03/20 12:43:29;;;;;;;1.20;0.67;;;16.60;99.90;;;;;;5021384;28;20195;-66
2024/03/20 12:45:56;;;;;;;0.73;0.60;;;16.50;99.90;;;;;;5021513;28;20275;-73
2024/03/20 12:48:21;;;;;;;0.60;0.60;;;16.80;99.90;;;;;;5028532;28;20196;-72
2024/03/20 12:50:48;;;;;;;0.70;0.70;;;16.50;99.90;;;;;;5019574;28;20626;-66
2024/03/20 12:53:16;;;;;;;1.70;0.70;;;16.60;99.90;;;;;;5019592;28;20252;-66
2024/03/20 12:55:44;;;;;;;2.10;0.60;;;17.30;99.90;;;;;;5019715;28;20218;-67